Time;durP1;ratioP1;P1;durP2;ratioP2;P2;SDS_P1;SDS_P2;PMS_P1;PMS_P2;Temp;Humidity;BMP_temperature;BMP_pressure;BME280_temperature;BME280_humidity;BME280_pressure;Samples;Min_cycle;Max_cycle;Signal;HPM_P1;HPM_P2
2022/02/19 00:03:26;;;;;;;17.80;3.17;;;;;;;5.16;53.17;99061.28;10312088;28;20466;-68
2022/02/19 00:08:27;;;;;;;9.98;2.47;;;;;;;4.94;54.63;99061.53;10315516;28;20366;-68
2022/02/19 00:13:29;;;;;;;19.63;3.53;;;;;;;4.66;55.24;99051.72;10322339;28;20166;-67
2022/02/19 00:18:31;;;;;;;19.85;5.90;;;;;;;4.56;55.33;99032.38;10317342;28;20137;-68
2022/02/19 00:23:33;;;;;;;16.30;3.28;;;;;;;4.44;55.74;99052.84;10313919;28;20517;-68
2022/02/19 00:28:35;;;;;;;18.02;3.70;;;;;;;4.46;54.86;99062.22;10320595;28;20466;-68
2022/02/19 00:33:37;;;;;;;19.50;3.60;;;;;;;4.38;55.00;99077.28;10309326;28;20105;-68
2022/02/19 00:38:38;;;;;;;15.60;3.30;;;;;;;4.56;54.55;99091.94;10317686;28;20082;-68
2022/02/19 00:43:42;;;;;;;13.70;2.92;;;;;;;4.60;53.10;99096.03;10309811;28;20050;-68
2022/02/19 00:48:44;;;;;;;13.73;3.10;;;;;;;4.57;53.12;99105.72;10307807;28;20042;-68
2022/02/19 00:53:50;;;;;;;14.63;2.45;;;;;;;4.62;52.02;99114.09;10324619;28;20060;-68
2022/02/19 00:58:52;;;;;;;12.05;2.55;;;;;;;4.70;51.56;99111.97;10330184;28;20069;-68
2022/02/19 01:03:54;;;;;;;12.82;2.58;;;;;;;4.59;51.30;99117.69;10317410;28;20050;-68
2022/02/19 01:08:56;;;;;;;12.82;2.80;;;;;;;4.67;51.12;99118.16;10309403;28;20093;-68
2022/02/19 01:13:58;;;;;;;15.18;2.83;;;;;;;4.77;51.09;99131.47;10309389;28;20058;-68
2022/02/19 01:19:00;;;;;;;14.30;3.13;;;;;;;4.79;50.95;99131.41;10323588;28;20050;-68
2022/02/19 01:24:01;;;;;;;15.73;2.90;;;;;;;4.89;50.88;99140.41;10306383;28;20125;-68
2022/02/19 01:29:05;;;;;;;11.32;2.78;;;;;;;4.73;51.01;99148.09;10312632;28;20125;-68
2022/02/19 01:34:06;;;;;;;15.23;2.60;;;;;;;4.97;50.33;99159.00;10318283;28;20713;-68
2022/02/19 01:39:08;;;;;;;11.57;2.47;;;;;;;4.93;49.99;99165.25;10321483;28;20049;-68
2022/02/19 01:44:12;;;;;;;10.00;2.08;;;;;;;5.00;48.99;99177.00;10308141;28;20047;-68
2022/02/19 01:49:14;;;;;;;11.00;2.38;;;;;;;5.10;50.01;99192.03;10325592;28;20478;-68
2022/02/19 01:54:15;;;;;;;12.15;2.60;;;;;;;5.07;51.02;99168.84;10307692;28;20402;-68
2022/02/19 01:59:17;;;;;;;15.52;2.83;;;;;;;4.91;52.93;99186.06;10306251;28;20038;-67
2022/02/19 02:04:19;;;;;;;13.05;2.75;;;;;;;4.86;53.28;99207.91;10314583;28;20129;-67
2022/02/19 02:09:21;;;;;;;14.95;2.83;;;;;;;4.80;53.69;99208.22;10319624;28;20069;-67
2022/02/19 02:14:22;;;;;;;14.98;2.78;;;;;;;4.78;52.06;99220.41;10318785;28;20256;-67
2022/02/19 02:19:24;;;;;;;12.50;2.25;;;;;;;4.73;51.68;99218.03;10313791;28;20636;-67
2022/02/19 02:24:29;;;;;;;13.48;2.30;;;;;;;4.62;50.69;99202.97;10316124;28;20077;-67
2022/02/19 02:29:32;;;;;;;10.18;2.42;;;;;;;4.66;50.35;99208.84;10305994;28;20042;-67
2022/02/19 02:34:33;;;;;;;8.85;2.05;;;;;;;4.64;52.90;99263.31;10305998;28;20057;-67
2022/02/19 02:39:35;;;;;;;12.40;2.70;;;;;;;3.91;57.81;99258.91;10311342;28;20482;-67
2022/02/19 02:44:40;;;;;;;11.18;2.05;;;;;;;3.66;58.01;99259.91;10306488;28;20064;-67
2022/02/19 02:49:42;;;;;;;10.38;2.33;;;;;;;3.64;57.06;99271.25;10305121;28;20051;-67
2022/02/19 02:54:44;;;;;;;13.23;2.88;;;;;;;3.74;55.75;99288.88;10305214;28;20489;-70
2022/02/19 02:59:46;;;;;;;9.00;1.77;;;;;;;3.87;55.01;99286.66;10314126;28;20775;-67
2022/02/19 03:04:48;;;;;;;13.95;2.33;;;;;;;3.87;54.35;99278.91;10311434;28;20080;-67
2022/02/19 03:09:50;;;;;;;10.77;2.22;;;;;;;3.93;53.58;99283.81;10314437;28;20057;-67
2022/02/19 03:14:53;;;;;;;11.73;2.67;;;;;;;3.88;52.70;99288.34;10315366;28;20083;-67
2022/02/19 03:19:55;;;;;;;9.95;1.80;;;;;;;4.04;52.89;99296.28;10319220;28;20046;-68
2022/02/19 03:24:56;;;;;;;13.10;2.22;;;;;;;4.02;52.51;99288.59;10318313;28;20136;-68
2022/02/19 03:29:58;;;;;;;10.20;2.58;;;;;;;4.04;52.23;99317.81;10311821;28;20061;-68
2022/02/19 03:35:00;;;;;;;5.00;1.83;;;;;;;4.02;52.54;99322.22;10312779;28;20046;-68
2022/02/19 03:40:06;;;;;;;8.30;1.90;;;;;;;3.92;52.86;99344.22;10316836;28;20105;-68
2022/02/19 03:45:11;;;;;;;7.30;1.75;;;;;;;3.96;52.97;99350.09;10324658;28;20054;-67
2022/02/19 03:50:15;;;;;;;6.88;1.90;;;;;;;3.84;53.28;99367.78;10328202;28;20046;-68
2022/02/19 03:55:18;;;;;;;9.48;1.83;;;;;;;3.82;53.46;99385.09;10317884;28;20577;-68
2022/02/19 04:00:19;;;;;;;9.80;2.08;;;;;;;3.76;53.38;99394.88;10328459;28;20156;-67
2022/02/19 04:05:21;;;;;;;8.25;2.13;;;;;;;3.69;53.33;99403.78;10314629;28;20096;-68
2022/02/19 04:10:23;;;;;;;10.75;1.83;;;;;;;3.75;53.52;99399.19;10304896;28;20128;-68
2022/02/19 04:15:25;;;;;;;12.23;1.88;;;;;;;3.88;53.39;99413.31;10302416;28;20076;-68
2022/02/19 04:20:27;;;;;;;8.73;1.75;;;;;;;4.03;52.64;99435.16;10325928;28;20064;-67
2022/02/19 04:25:29;;;;;;;13.07;2.47;;;;;;;4.13;52.28;99438.22;10310604;28;20445;-68
2022/02/19 04:30:31;;;;;;;11.00;2.03;;;;;;;4.06;52.06;99445.38;10315360;28;20053;-68
2022/02/19 04:35:34;;;;;;;10.88;2.47;;;;;;;4.07;52.55;99449.66;10330331;28;20050;-68
2022/02/19 04:40:36;;;;;;;11.90;2.45;;;;;;;3.99;52.61;99464.63;10318429;28;20078;-67
2022/02/19 04:45:37;;;;;;;11.23;2.30;;;;;;;4.11;52.51;99477.06;10327950;28;20525;-67
2022/02/19 04:50:39;;;;;;;9.23;2.08;;;;;;;4.22;52.23;99487.00;10310894;28;20543;-67
2022/02/19 04:55:41;;;;;;;19.77;2.80;;;;;;;4.31;52.26;99504.75;10318836;28;20050;-67
2022/02/19 05:00:42;;;;;;;10.18;2.20;;;;;;;4.39;51.65;99513.03;10310297;28;20418;-68
2022/02/19 05:05:44;;;;;;;12.52;2.60;;;;;;;4.43;51.34;99524.97;10313701;28;20129;-68
2022/02/19 05:10:46;;;;;;;10.85;2.28;;;;;;;4.54;50.98;99521.00;10314660;28;20046;-67
2022/02/19 05:15:48;;;;;;;9.07;2.15;;;;;;;4.50;49.99;99521.19;10309290;28;20058;-67
2022/02/19 05:20:50;;;;;;;9.48;1.80;;;;;;;4.54;50.32;99533.09;10328573;28;20042;-67
2022/02/19 05:25:52;;;;;;;12.30;2.33;;;;;;;4.49;49.85;99545.41;10317864;28;20042;-68
2022/02/19 05:30:54;;;;;;;13.63;2.28;;;;;;;4.57;49.83;99556.28;10308444;28;20065;-67
2022/02/19 05:35:56;;;;;;;13.55;2.33;;;;;;;4.66;49.49;99584.38;10311941;28;20058;-68
2022/02/19 05:40:57;;;;;;;9.95;1.88;;;;;;;4.54;49.46;99593.50;10320191;28;20055;-68
2022/02/19 05:45:59;;;;;;;11.38;2.17;;;;;;;4.60;49.52;99597.59;10326226;28;20137;-68
2022/02/19 05:51:01;;;;;;;10.90;2.10;;;;;;;4.59;49.44;99604.53;10308220;28;20050;-68
2022/02/19 05:56:02;;;;;;;12.35;2.65;;;;;;;4.37;49.33;99616.63;10307979;28;20046;-68
2022/02/19 06:01:04;;;;;;;10.82;2.10;;;;;;;4.41;49.62;99627.75;10313050;28;20454;-68
2022/02/19 06:06:07;;;;;;;10.73;2.47;;;;;;;4.27;49.35;99628.25;10308177;28;20053;-68
2022/02/19 06:11:09;;;;;;;9.55;2.00;;;;;;;3.98;49.95;99636.31;10323033;28;20406;-68
2022/02/19 06:16:11;;;;;;;11.73;2.58;;;;;;;4.02;49.85;99652.56;10306107;28;20050;-67
2022/02/19 06:21:12;;;;;;;11.10;2.10;;;;;;;3.94;49.41;99652.84;10306650;28;20514;-69
2022/02/19 06:26:14;;;;;;;10.27;1.95;;;;;;;3.84;49.57;99662.69;10318504;28;20614;-68
2022/02/19 06:31:16;;;;;;;9.25;2.53;;;;;;;3.78;49.17;99667.22;10306686;28;20463;-68
2022/02/19 06:36:18;;;;;;;10.50;2.45;;;;;;;3.78;49.47;99674.97;10312789;28;20141;-68
2022/02/19 06:41:20;;;;;;;10.23;2.20;;;;;;;3.68;49.35;99677.03;10315409;28;20050;-68
2022/02/19 06:46:22;;;;;;;10.05;2.15;;;;;;;3.64;49.21;99692.72;10314745;28;20053;-68
2022/02/19 06:51:28;;;;;;;9.15;2.08;;;;;;;3.62;49.48;99699.69;10306177;28;20137;-68
2022/02/19 06:56:32;;;;;;;10.80;2.20;;;;;;;3.57;49.41;99722.28;10305938;28;20049;-68
2022/02/19 07:01:34;;;;;;;13.77;2.28;;;;;;;3.61;49.37;99729.03;10314590;28;20133;-68
2022/02/19 07:06:36;;;;;;;9.80;2.25;;;;;;;3.64;49.81;99729.75;10312494;28;20054;-68
2022/02/19 07:11:38;;;;;;;12.88;2.22;;;;;;;3.76;49.23;99741.44;10317000;28;20052;-68
2022/02/19 07:16:39;;;;;;;11.77;2.45;;;;;;;3.79;49.02;99743.91;10306004;28;20145;-68
2022/02/19 07:21:41;;;;;;;12.77;2.58;;;;;;;3.76;49.12;99762.13;10315328;28;20133;-67
2022/02/19 07:26:43;;;;;;;11.20;2.13;;;;;;;3.84;48.97;99767.91;10305584;28;20054;-69
2022/02/19 07:31:50;;;;;;;9.48;2.35;;;;;;;4.07;48.63;99773.09;10313796;28;20138;-67
2022/02/19 07:36:51;;;;;;;12.68;2.55;;;;;;;4.17;48.76;99784.81;10313703;28;20060;-68
2022/02/19 07:41:53;;;;;;;11.93;2.50;;;;;;;4.23;48.64;99794.13;10322200;28;20439;-67
2022/02/19 07:46:55;;;;;;;12.98;2.63;;;;;;;4.16;48.29;99792.63;10305279;28;20072;-68
2022/02/19 08:02:37;;;;;;;10.75;2.78;;;;;;;4.55;47.47;99799.81;10320484;28;20550;-67
2022/02/19 08:07:39;;;;;;;16.98;3.30;;;;;;;4.61;47.36;99814.25;10333933;28;20561;-68
2022/02/19 08:12:41;;;;;;;12.45;3.55;;;;;;;4.61;46.72;99824.63;10316969;28;20054;-69
2022/02/19 08:17:43;;;;;;;15.68;2.35;;;;;;;4.63;46.88;99831.44;10341003;28;20050;-68
2022/02/19 08:22:45;;;;;;;10.25;2.28;;;;;;;4.73;46.34;99837.09;10351301;28;20429;-68
2022/02/19 08:27:46;;;;;;;11.93;2.63;;;;;;;5.14;46.41;99838.13;10348429;28;20495;-68
2022/02/19 08:32:49;;;;;;;12.38;2.28;;;;;;;5.42;45.82;99828.34;10349922;28;20315;-68
2022/02/19 08:37:50;;;;;;;10.80;2.67;;;;;;;5.26;45.73;99837.63;10323234;28;20050;-68
2022/02/19 08:42:52;;;;;;;11.75;2.50;;;;;;;5.17;45.52;99846.59;10344895;28;20149;-68
2022/02/19 08:48:01;;;;;;;13.02;2.70;;;;;;;5.38;45.14;99845.78;10310211;28;20058;-67
2022/02/19 08:53:03;;;;;;;13.07;2.45;;;;;;;5.61;45.17;99846.59;10308556;28;20053;-68
2022/02/19 08:58:06;;;;;;;10.25;2.17;;;;;;;5.82;44.83;99867.31;10328741;28;20570;-68
2022/02/19 09:03:07;;;;;;;10.48;2.30;;;;;;;5.97;44.58;99860.63;10326230;28;20050;-68
2022/02/19 09:08:09;;;;;;;9.68;2.53;;;;;;;6.11;44.47;99866.09;10318152;28;20047;-68
2022/02/19 09:13:11;;;;;;;11.63;2.55;;;;;;;6.21;43.95;99863.03;10322520;28;20054;-68
2022/02/19 09:18:12;;;;;;;10.60;2.60;;;;;;;6.33;43.69;99872.91;10311847;28;20046;-63
2022/02/19 09:23:14;;;;;;;14.00;2.55;;;;;;;6.57;44.00;99894.38;10312340;28;20054;-63
2022/02/19 09:28:20;;;;;;;11.20;2.03;;;;;;;6.66;43.19;99870.59;10324905;28;20050;-64
2022/02/19 09:33:22;;;;;;;11.95;2.22;;;;;;;6.84;43.31;99889.72;10337532;28;20046;-64
2022/02/19 09:38:24;;;;;;;9.57;2.60;;;;;;;6.57;43.58;99888.34;10316748;28;20618;-63
2022/02/19 09:43:25;;;;;;;14.30;2.40;;;;;;;6.44;43.30;99900.19;10309962;28;20129;-64
2022/02/19 09:48:27;;;;;;;9.20;2.50;;;;;;;6.28;43.47;99895.66;10325797;28;20430;-64
2022/02/19 09:53:31;;;;;;;13.50;2.65;;;;;;;6.59;43.17;99883.94;10309167;28;20125;-63
2022/02/19 09:58:33;;;;;;;10.77;2.13;;;;;;;6.77;42.67;99914.31;10319199;28;20057;-64
2022/02/19 10:03:35;;;;;;;13.15;2.30;;;;;;;6.66;42.71;99893.13;10313123;28;20133;-64
2022/02/19 10:08:37;;;;;;;9.57;2.17;;;;;;;6.60;42.27;99932.38;10308220;28;20060;-63
2022/02/19 10:13:43;;;;;;;10.32;2.25;;;;;;;6.72;42.47;99942.25;10310722;28;20092;-64
2022/02/19 10:18:45;;;;;;;11.77;2.55;;;;;;;6.80;42.09;99924.56;10316155;28;20050;-64
2022/02/19 10:23:49;;;;;;;10.77;1.98;;;;;;;6.96;42.07;99930.75;10318795;28;20070;-63
2022/02/19 10:29:03;;;;;;;10.45;2.25;;;;;;;7.21;41.58;99923.53;10322552;28;20053;-64
2022/02/19 10:34:08;;;;;;;9.48;1.95;;;;;;;7.60;41.93;99929.47;10324354;28;20113;-63
2022/02/19 10:39:10;;;;;;;11.30;2.35;;;;;;;7.49;41.95;99925.72;10313662;28;20581;-64
2022/02/19 10:44:27;;;;;;;10.38;2.20;;;;;;;7.66;41.34;99929.19;10306472;28;20058;-64
2022/02/19 10:49:28;;;;;;;7.35;2.00;;;;;;;7.66;40.95;99923.13;10311042;28;20046;-64
2022/02/19 10:54:33;;;;;;;7.25;2.15;;;;;;;8.07;40.02;99926.31;10311034;28;20397;-64
2022/02/19 10:59:35;;;;;;;8.85;2.25;;;;;;;8.14;38.70;99925.97;10306821;28;20089;-64
2022/02/19 11:04:38;;;;;;;9.82;2.00;;;;;;;8.02;39.20;99931.75;10323286;28;20126;-63
2022/02/19 11:09:40;;;;;;;12.02;2.70;;;;;;;7.98;39.99;99925.00;10306368;28;20115;-64
2022/02/19 11:14:43;;;;;;;10.88;2.53;;;;;;;7.59;40.71;99922.56;10309030;28;20052;-64
2022/02/19 11:19:45;;;;;;;7.60;1.70;;;;;;;7.36;40.43;99927.19;10314562;28;20133;-64
2022/02/19 11:24:49;;;;;;;8.93;1.88;;;;;;;7.18;41.54;99923.69;10307298;28;20621;-64
2022/02/19 11:29:56;;;;;;;10.60;2.13;;;;;;;7.56;41.80;99922.72;10310064;28;20058;-64
2022/02/19 11:34:58;;;;;;;8.45;2.08;;;;;;;7.41;41.80;99907.84;10326332;28;20120;-64
2022/02/19 11:40:05;;;;;;;8.35;1.70;;;;;;;7.13;42.35;99915.22;10325942;28;20045;-64
2022/02/19 11:45:31;;;;;;;8.95;1.92;;;;;;;7.17;43.34;99916.78;10330915;28;20414;-64
2022/02/19 11:50:36;;;;;;;9.73;2.33;;;;;;;7.05;44.05;99919.94;10364778;28;20115;-64
2022/02/19 11:55:42;;;;;;;8.90;1.90;;;;;;;7.19;43.93;99901.94;10316634;28;20336;-64
2022/02/19 12:00:50;;;;;;;9.93;2.00;;;;;;;7.26;43.88;99895.56;10332835;28;20479;-64
2022/02/19 12:06:16;;;;;;;8.13;2.17;;;;;;;7.39;42.05;99883.66;10312556;28;20057;-64
2022/02/19 12:11:22;;;;;;;10.88;2.10;;;;;;;7.61;41.97;99881.69;10313249;28;20053;-64
2022/02/19 12:21:40;;;;;;;8.50;2.40;;;;;;;8.37;41.03;99891.78;10332253;28;20050;-64
2022/02/19 12:26:54;;;;;;;8.18;2.30;;;;;;;8.50;40.78;99905.03;10323409;28;20077;-64
2022/02/19 12:32:03;;;;;;;10.70;2.65;;;;;;;8.28;40.97;99907.06;10320772;28;20082;-64
2022/02/19 12:37:09;;;;;;;9.77;2.00;;;;;;;8.22;41.20;99907.38;10310892;28;20050;-64
2022/02/19 12:42:19;;;;;;;7.75;2.00;;;;;;;8.40;40.08;99896.84;10317856;28;20078;-63
2022/02/19 12:47:21;;;;;;;7.77;2.00;;;;;;;8.50;39.88;99886.78;10320924;28;20255;-64
2022/02/19 12:52:23;;;;;;;6.75;1.80;;;;;;;8.57;39.27;99880.31;10315131;28;20104;-64
2022/02/19 12:57:25;;;;;;;6.15;1.75;;;;;;;8.86;39.10;99884.84;10312826;28;20133;-64
2022/02/19 13:02:27;;;;;;;9.23;1.90;;;;;;;8.10;39.60;99907.94;10342665;28;20889;-64
2022/02/19 13:07:30;;;;;;;11.63;2.33;;;;;;;8.17;39.79;99894.56;10312355;28;20451;-63
2022/02/19 13:12:33;;;;;;;7.07;1.92;;;;;;;8.21;40.10;99880.47;10309707;28;20462;-64
2022/02/19 13:17:37;;;;;;;8.18;1.90;;;;;;;7.74;40.38;99892.34;10308954;28;20054;-64
2022/02/19 13:22:41;;;;;;;7.90;1.98;;;;;;;8.06;40.33;99877.78;10311789;28;20057;-64
2022/02/19 13:27:44;;;;;;;6.07;1.65;;;;;;;8.14;40.16;99893.88;10308904;28;20046;-64
2022/02/19 13:32:49;;;;;;;6.80;1.70;;;;;;;8.24;39.80;99888.09;10317659;28;20101;-65
2022/02/19 13:37:53;;;;;;;7.05;1.80;;;;;;;8.30;40.14;99886.97;10316766;28;20180;-64
2022/02/19 13:43:19;;;;;;;11.02;1.98;;;;;;;7.74;40.73;99889.75;10336084;28;20522;-64
2022/02/19 13:48:25;;;;;;;7.50;2.65;;;;;;;7.82;41.49;99892.81;10309465;28;20058;-64
2022/02/19 13:53:29;;;;;;;8.70;1.90;;;;;;;7.79;40.96;99891.22;10315759;28;20046;-65
2022/02/19 13:58:37;;;;;;;8.80;1.85;;;;;;;7.96;41.15;99886.03;10309677;28;20173;-64
2022/02/19 14:03:47;;;;;;;7.10;1.73;;;;;;;8.03;40.58;99877.00;10328712;28;20050;-64
2022/02/19 14:08:48;;;;;;;6.13;2.00;;;;;;;8.55;40.34;99869.13;10308560;28;20538;-64
2022/02/19 14:13:51;;;;;;;8.02;1.75;;;;;;;8.65;39.84;99870.31;10329877;28;20054;-64
2022/02/19 14:19:05;;;;;;;9.13;1.80;;;;;;;8.18;39.60;99857.16;10307171;28;20064;-64
2022/02/19 14:24:10;;;;;;;9.30;2.20;;;;;;;8.31;40.20;99867.81;10306893;28;20050;-65
2022/02/19 14:29:12;;;;;;;6.88;1.77;;;;;;;8.28;40.09;99865.38;10306805;28;20072;-64
2022/02/19 14:34:18;;;;;;;7.20;1.90;;;;;;;8.27;40.13;99848.03;10308101;28;20424;-65
2022/02/19 14:39:22;;;;;;;6.53;1.63;;;;;;;8.10;40.07;99867.13;10326591;28;20042;-65
2022/02/19 14:44:25;;;;;;;8.55;1.80;;;;;;;8.00;40.91;99864.13;10314758;28;20058;-65
2022/02/19 14:49:27;;;;;;;8.00;1.98;;;;;;;7.94;40.82;99867.03;10315352;28;20465;-64
2022/02/19 14:54:30;;;;;;;8.95;2.08;;;;;;;7.61;41.42;99863.47;10315753;28;20465;-64
2022/02/19 14:59:33;;;;;;;8.10;2.03;;;;;;;7.28;41.52;99843.47;10305394;28;20141;-64
2022/02/19 15:04:35;;;;;;;9.23;2.10;;;;;;;7.00;42.50;99838.69;10305596;28;20057;-64
2022/02/19 15:09:37;;;;;;;7.38;2.08;;;;;;;6.80;42.79;99841.38;10317680;28;20046;-64
2022/02/19 15:14:40;;;;;;;9.57;2.25;;;;;;;7.04;42.75;99853.28;10315169;28;20057;-64
2022/02/19 15:19:42;;;;;;;8.45;1.88;;;;;;;7.06;43.34;99841.03;10322161;28;20070;-64
2022/02/19 15:24:45;;;;;;;7.22;2.05;;;;;;;7.09;43.23;99839.13;10323132;28;20137;-65
2022/02/19 15:29:47;;;;;;;9.32;2.03;;;;;;;6.99;43.79;99837.03;10334758;28;20519;-64
2022/02/19 15:34:51;;;;;;;10.68;2.55;;;;;;;7.16;44.26;99839.69;10304973;28;20750;-65
2022/02/19 15:39:54;;;;;;;5.10;1.55;;;;;;;6.76;44.67;99845.88;10304488;28;20074;-65
2022/02/19 15:45:05;;;;;;;6.95;1.80;;;;;;;6.55;45.12;99833.03;10319976;28;20066;-64
2022/02/19 15:50:08;;;;;;;7.45;2.03;;;;;;;6.42;45.33;99826.69;10325218;28;20764;-64
2022/02/19 15:55:11;;;;;;;8.90;1.63;;;;;;;6.27;45.72;99818.66;10338663;28;20046;-65
2022/02/19 16:00:13;;;;;;;7.95;2.28;;;;;;;6.21;45.97;99813.69;10304841;28;20050;-65
2022/02/19 16:05:15;;;;;;;8.32;2.05;;;;;;;6.24;45.99;99803.19;10314743;28;20058;-64
2022/02/19 16:10:18;;;;;;;8.50;2.00;;;;;;;6.21;45.93;99794.66;10304258;28;20479;-63
2022/02/19 16:15:20;;;;;;;8.50;1.77;;;;;;;6.21;45.88;99785.13;10330563;28;20529;-63
2022/02/19 16:20:23;;;;;;;9.75;1.85;;;;;;;6.32;45.84;99788.13;10308619;28;20047;-63
2022/02/19 16:25:25;;;;;;;9.13;2.33;;;;;;;6.30;45.85;99774.38;10323626;28;20193;-63
2022/02/19 16:30:28;;;;;;;14.30;5.97;;;;;;;6.26;45.55;99772.84;10340893;28;20050;-63
2022/02/19 16:35:30;;;;;;;12.55;2.55;;;;;;;6.20;45.48;99772.22;10311465;28;20102;-65
2022/02/19 16:40:32;;;;;;;7.88;1.90;;;;;;;6.15;45.32;99762.03;10318723;28;20054;-65
2022/02/19 16:45:41;;;;;;;6.05;2.05;;;;;;;6.03;45.69;99749.59;10326498;28;20447;-64
2022/02/19 16:50:43;;;;;;;6.45;2.10;;;;;;;5.89;45.98;99762.34;10334295;28;20050;-65
2022/02/19 16:55:45;;;;;;;9.30;2.30;;;;;;;5.84;45.67;99764.28;10319180;28;20321;-64
2022/02/19 17:00:47;;;;;;;7.47;1.85;;;;;;;5.73;45.85;99748.34;10309157;28;20514;-64
2022/02/19 17:05:52;;;;;;;8.75;2.45;;;;;;;5.61;45.80;99746.28;10324933;28;20528;-65
2022/02/19 17:10:55;;;;;;;8.73;2.05;;;;;;;5.60;46.00;99739.38;10320792;28;20105;-64
2022/02/19 17:16:00;;;;;;;7.65;1.80;;;;;;;5.55;45.76;99725.78;10320142;28;20643;-65
2022/02/19 17:21:01;;;;;;;8.25;2.60;;;;;;;5.53;45.76;99727.59;10313072;28;20398;-65
2022/02/19 17:26:04;;;;;;;5.45;1.80;;;;;;;5.60;45.40;99726.41;10308998;28;20286;-64
2022/02/19 17:31:05;;;;;;;7.40;1.92;;;;;;;5.57;45.47;99717.00;10317388;28;20050;-65
2022/02/19 17:36:07;;;;;;;8.57;2.00;;;;;;;5.58;45.80;99730.81;10311666;28;20056;-64
2022/02/19 17:41:09;;;;;;;7.47;2.67;;;;;;;5.59;45.36;99716.97;10310799;28;20046;-64
2022/02/19 17:46:11;;;;;;;7.30;2.05;;;;;;;5.66;45.37;99702.78;10310215;28;20137;-64
2022/02/19 17:51:13;;;;;;;10.35;1.85;;;;;;;5.69;45.02;99712.22;10309711;28;20046;-63
2022/02/19 17:56:14;;;;;;;6.60;1.70;;;;;;;5.74;45.21;99695.53;10313412;28;20140;-64
2022/02/19 18:01:18;;;;;;;7.65;1.88;;;;;;;5.76;44.65;99688.50;10309396;28;20050;-64
2022/02/19 18:06:22;;;;;;;14.85;5.20;;;;;;;5.85;45.39;99687.28;10313983;28;20043;-64
2022/02/19 18:11:24;;;;;;;10.20;3.97;;;;;;;5.83;44.88;99669.19;10305838;28;20040;-65
2022/02/19 18:16:26;;;;;;;15.23;6.47;;;;;;;5.88;44.62;99677.59;10305668;28;20050;-65
2022/02/19 18:21:28;;;;;;;38.53;18.10;;;;;;;5.88;44.41;99667.22;10308133;28;20519;-64
2022/02/19 18:26:31;;;;;;;7.53;2.20;;;;;;;5.86;44.55;99669.03;10331194;28;20085;-66
2022/02/19 18:31:33;;;;;;;6.32;1.92;;;;;;;5.96;44.22;99669.47;10333377;28;20088;-65
2022/02/19 18:36:36;;;;;;;7.00;2.05;;;;;;;5.99;44.17;99658.94;10310962;28;20060;-64
2022/02/19 18:41:38;;;;;;;6.88;1.92;;;;;;;5.98;44.18;99652.09;10313025;28;20385;-63
2022/02/19 18:46:41;;;;;;;6.03;1.98;;;;;;;5.99;43.84;99638.19;10306865;28;20054;-63
2022/02/19 18:51:45;;;;;;;9.70;2.63;;;;;;;6.07;43.91;99629.13;10320905;28;20050;-63
2022/02/19 18:56:47;;;;;;;7.50;2.30;;;;;;;6.06;44.23;99619.66;10330682;28;20045;-63
2022/02/19 19:01:48;;;;;;;8.98;1.88;;;;;;;6.13;44.20;99608.06;10322885;28;20050;-63
2022/02/19 19:06:51;;;;;;;6.85;2.08;;;;;;;6.16;44.28;99607.94;10315595;28;20473;-63
2022/02/19 19:11:53;;;;;;;5.88;1.67;;;;;;;6.11;44.33;99594.31;10317294;28;20050;-63
2022/02/19 19:16:58;;;;;;;5.25;1.70;;;;;;;6.10;44.24;99586.63;10317234;28;20266;-63
2022/02/19 19:21:59;;;;;;;8.48;2.38;;;;;;;6.17;44.38;99582.81;10317747;28;20042;-63
2022/02/19 19:27:03;;;;;;;6.78;1.88;;;;;;;6.15;44.23;99582.03;10330254;28;20471;-63
2022/02/19 19:32:06;;;;;;;4.93;1.60;;;;;;;6.12;44.25;99571.81;10321019;28;20050;-62
2022/02/19 19:37:07;;;;;;;7.15;1.98;;;;;;;6.31;44.33;99572.63;10319636;28;20046;-62
2022/02/19 19:42:09;;;;;;;7.30;1.83;;;;;;;6.16;44.27;99550.81;10324297;28;20406;-63
2022/02/19 19:47:12;;;;;;;8.00;1.60;;;;;;;6.03;44.88;99541.06;10337659;28;20128;-63
2022/02/19 19:52:16;;;;;;;8.70;2.15;;;;;;;6.21;44.48;99533.25;10330843;28;20060;-63
2022/02/19 19:57:17;;;;;;;6.60;1.70;;;;;;;6.06;44.78;99513.22;10320165;28;20058;-68
2022/02/19 20:02:19;;;;;;;9.65;2.00;;;;;;;6.04;44.86;99493.47;10319564;28;20056;-67
2022/02/19 20:07:21;;;;;;;7.00;1.80;;;;;;;6.07;45.13;99501.06;10318613;28;20164;-68
2022/02/19 20:12:23;;;;;;;9.05;2.00;;;;;;;6.03;45.14;99473.59;10339372;28;20050;-67
2022/02/19 20:17:25;;;;;;;8.65;1.98;;;;;;;6.10;45.36;99470.59;10332318;28;20144;-67
2022/02/19 20:22:27;;;;;;;10.18;1.92;;;;;;;6.14;45.39;99477.34;10316841;28;20054;-67
2022/02/19 20:27:28;;;;;;;10.55;1.85;;;;;;;6.02;46.04;99466.72;10322903;28;20052;-68
2022/02/19 20:32:30;;;;;;;11.57;2.30;;;;;;;5.91;47.05;99464.66;10324440;28;20072;-67
2022/02/19 20:37:32;;;;;;;5.78;1.75;;;;;;;5.88;47.54;99459.59;10324964;28;20140;-68
2022/02/19 20:42:34;;;;;;;7.45;2.13;;;;;;;5.74;48.85;99446.44;10316839;28;20050;-68
2022/02/19 20:47:37;;;;;;;8.02;2.35;;;;;;;5.54;50.11;99428.38;10311202;28;20157;-68
2022/02/19 20:52:39;;;;;;;7.60;1.85;;;;;;;5.71;49.79;99433.63;10326322;28;20046;-67
2022/02/19 20:57:41;;;;;;;7.93;1.95;;;;;;;5.66;50.03;99427.81;10322185;28;20554;-67
2022/02/19 21:02:42;;;;;;;9.32;2.10;;;;;;;5.39;51.39;99440.31;10321453;28;20141;-67
2022/02/19 21:07:44;;;;;;;7.32;1.83;;;;;;;5.51;51.07;99446.72;10323601;28;20049;-67
2022/02/19 21:12:46;;;;;;;9.77;2.30;;;;;;;5.51;51.14;99433.75;10320976;28;20042;-67
2022/02/19 21:17:48;;;;;;;9.60;2.08;;;;;;;5.37;51.92;99430.94;10311406;28;20137;-67
2022/02/19 21:22:49;;;;;;;8.85;2.08;;;;;;;5.46;51.79;99441.72;10313621;28;20831;-67
2022/02/19 21:27:51;;;;;;;7.55;1.80;;;;;;;5.27;52.75;99427.06;10309574;28;20124;-67
2022/02/19 21:32:53;;;;;;;12.20;2.13;;;;;;;5.22;52.90;99411.75;10332466;28;20052;-67
2022/02/19 21:37:55;;;;;;;6.63;1.80;;;;;;;5.10;53.74;99416.66;10315517;28;20517;-67
2022/02/19 21:42:57;;;;;;;8.93;2.00;;;;;;;5.15;53.70;99410.34;10321464;28;20082;-67
2022/02/19 21:47:58;;;;;;;8.68;1.92;;;;;;;4.98;54.48;99378.34;10308083;28;20050;-68
2022/02/19 21:53:00;;;;;;;8.55;2.17;;;;;;;5.02;54.33;99378.16;10318076;28;20049;-67
2022/02/19 21:58:02;;;;;;;6.18;1.80;;;;;;;5.00;54.50;99361.81;10317895;28;20141;-68
2022/02/19 22:03:04;;;;;;;7.03;1.77;;;;;;;5.13;54.21;99365.50;10307449;28;20497;-66
2022/02/19 22:08:05;;;;;;;6.38;1.90;;;;;;;5.21;53.97;99341.81;10307203;28;20081;-69
2022/02/19 22:13:07;;;;;;;8.90;1.90;;;;;;;5.10;54.38;99364.81;10305166;28;20042;-66
2022/02/19 22:18:09;;;;;;;7.93;2.10;;;;;;;5.28;53.85;99345.81;10310146;28;20507;-67
2022/02/19 22:23:11;;;;;;;7.63;1.90;;;;;;;5.28;54.01;99353.59;10316851;28;20562;-69
2022/02/19 22:28:13;;;;;;;9.10;1.95;;;;;;;5.17;54.36;99337.69;10305581;28;20078;-67
2022/02/19 22:33:15;;;;;;;7.85;1.90;;;;;;;5.27;54.36;99344.13;10313679;28;20050;-69
2022/02/19 22:38:17;;;;;;;5.18;1.48;;;;;;;5.38;54.39;99362.59;10305806;28;20060;-69
2022/02/19 22:43:18;;;;;;;5.63;1.45;;;;;;;5.38;54.39;99360.00;10306730;28;20049;-69
2022/02/19 22:48:20;;;;;;;7.47;1.80;;;;;;;5.44;54.50;99352.78;10306278;28;20057;-70
2022/02/19 22:53:22;;;;;;;7.28;1.90;;;;;;;5.64;54.05;99364.78;10306309;28;20050;-69
2022/02/19 22:58:37;;;;;;;8.43;1.73;;;;;;;5.68;54.18;99378.44;10318904;28;20058;-69
2022/02/19 23:08:59;;;;;;;5.53;1.70;;;;;;;5.71;54.29;99363.59;10305910;28;20042;-69
2022/02/19 23:14:00;;;;;;;5.35;1.42;;;;;;;5.89;53.83;99349.69;10308772;28;20128;-69
2022/02/19 23:19:03;;;;;;;5.13;1.50;;;;;;;5.81;54.12;99344.06;10313407;28;20169;-68
2022/02/19 23:24:06;;;;;;;4.57;1.50;;;;;;;5.91;54.47;99363.44;10308654;28;20046;-68
2022/02/19 23:29:08;;;;;;;5.15;1.33;;;;;;;5.82;54.72;99352.69;10318841;28;20409;-68
2022/02/19 23:34:11;;;;;;;5.63;1.52;;;;;;;5.88;54.82;99373.94;10324725;28;20050;-69
2022/02/19 23:39:18;;;;;;;3.83;1.38;;;;;;;6.01;54.56;99340.44;10314369;28;20046;-69
2022/02/19 23:44:19;;;;;;;5.45;1.52;;;;;;;6.11;54.23;99347.69;10326397;28;20096;-69
2022/02/19 23:49:21;;;;;;;6.30;1.80;;;;;;;5.88;55.05;99332.44;10316833;28;20140;-68
2022/02/19 23:54:23;;;;;;;4.72;1.42;;;;;;;6.13;54.53;99332.88;10325550;28;20053;-69
2022/02/19 23:59:25;;;;;;;7.38;2.10;;;;;;;5.95;55.17;99343.34;10341951;28;20042;-68
